sensor_id;sensor_type;location;lat;lon;timestamp;temperature;humidity
34406;DHT22;20658;45.630;8.886;2022-08-01T00:00:33;23.70;49.60
34406;DHT22;20658;45.630;8.886;2022-08-01T00:03:07;23.60;49.60
34406;DHT22;20658;45.630;8.886;2022-08-01T00:05:40;23.60;49.80
34406;DHT22;20658;45.630;8.886;2022-08-01T00:08:15;23.60;50.00
34406;DHT22;20658;45.630;8.886;2022-08-01T00:10:49;23.60;50.40
34406;DHT22;20658;45.630;8.886;2022-08-01T00:13:23;23.50;50.60
34406;DHT22;20658;45.630;8.886;2022-08-01T00:15:56;23.50;50.70
34406;DHT22;20658;45.630;8.886;2022-08-01T00:18:30;23.50;50.70
34406;DHT22;20658;45.630;8.886;2022-08-01T00:21:03;23.50;50.90
34406;DHT22;20658;45.630;8.886;2022-08-01T00:23:37;23.50;51.20
34406;DHT22;20658;45.630;8.886;2022-08-01T00:26:12;23.50;51.60
34406;DHT22;20658;45.630;8.886;2022-08-01T00:28:46;23.50;51.50
34406;DHT22;20658;45.630;8.886;2022-08-01T00:31:19;23.50;51.60
34406;DHT22;20658;45.630;8.886;2022-08-01T00:33:53;23.40;51.50
34406;DHT22;20658;45.630;8.886;2022-08-01T00:36:26;23.40;51.90
34406;DHT22;20658;45.630;8.886;2022-08-01T00:39:00;23.40;52.10
34406;DHT22;20658;45.630;8.886;2022-08-01T00:41:34;23.40;52.30
34406;DHT22;20658;45.630;8.886;2022-08-01T00:44:08;23.30;52.90
34406;DHT22;20658;45.630;8.886;2022-08-01T00:46:41;23.30;53.20
34406;DHT22;20658;45.630;8.886;2022-08-01T00:49:15;23.30;53.20
34406;DHT22;20658;45.630;8.886;2022-08-01T00:51:48;23.30;53.30
34406;DHT22;20658;45.630;8.886;2022-08-01T00:54:22;23.20;53.50
34406;DHT22;20658;45.630;8.886;2022-08-01T00:56:58;23.20;53.50
34406;DHT22;20658;45.630;8.886;2022-08-01T00:59:31;23.30;53.60
34406;DHT22;20658;45.630;8.886;2022-08-01T01:02:05;23.30;53.80
34406;DHT22;20658;45.630;8.886;2022-08-01T01:04:38;23.20;53.70
34406;DHT22;20658;45.630;8.886;2022-08-01T01:07:19;23.20;53.90
34406;DHT22;20658;45.630;8.886;2022-08-01T01:10:03;23.10;54.00
34406;DHT22;20658;45.630;8.886;2022-08-01T01:12:47;23.20;54.00
34406;DHT22;20658;45.630;8.886;2022-08-01T01:15:30;23.20;54.00
34406;DHT22;20658;45.630;8.886;2022-08-01T01:18:11;23.20;54.00
34406;DHT22;20658;45.630;8.886;2022-08-01T01:20:52;23.20;53.80
34406;DHT22;20658;45.630;8.886;2022-08-01T01:23:44;23.20;53.80
34406;DHT22;20658;45.630;8.886;2022-08-01T01:26:26;23.20;53.80
34406;DHT22;20658;45.630;8.886;2022-08-01T01:29:11;23.10;53.80
34406;DHT22;20658;45.630;8.886;2022-08-01T01:31:51;23.10;53.80
34406;DHT22;20658;45.630;8.886;2022-08-01T01:34:28;23.10;53.60
34406;DHT22;20658;45.630;8.886;2022-08-01T01:37:02;23.10;54.10
34406;DHT22;20658;45.630;8.886;2022-08-01T01:39:38;23.00;54.50
34406;DHT22;20658;45.630;8.886;2022-08-01T01:42:15;23.00;54.70
34406;DHT22;20658;45.630;8.886;2022-08-01T01:44:51;23.00;54.70
34406;DHT22;20658;45.630;8.886;2022-08-01T01:47:25;22.90;55.20
34406;DHT22;20658;45.630;8.886;2022-08-01T01:50:03;22.90;55.60
34406;DHT22;20658;45.630;8.886;2022-08-01T01:52:39;22.80;55.80
34406;DHT22;20658;45.630;8.886;2022-08-01T01:55:14;22.80;55.90
34406;DHT22;20658;45.630;8.886;2022-08-01T01:57:49;22.70;55.80
34406;DHT22;20658;45.630;8.886;2022-08-01T02:00:25;22.80;55.70
34406;DHT22;20658;45.630;8.886;2022-08-01T02:03:01;22.80;55.50
34406;DHT22;20658;45.630;8.886;2022-08-01T02:05:37;22.80;55.50
34406;DHT22;20658;45.630;8.886;2022-08-01T02:08:15;22.80;55.40
34406;DHT22;20658;45.630;8.886;2022-08-01T02:10:50;22.80;55.30
34406;DHT22;20658;45.630;8.886;2022-08-01T02:13:40;22.80;55.10
34406;DHT22;20658;45.630;8.886;2022-08-01T02:16:17;22.80;55.50
34406;DHT22;20658;45.630;8.886;2022-08-01T02:18:50;22.80;55.70
34406;DHT22;20658;45.630;8.886;2022-08-01T02:21:27;22.70;55.60
34406;DHT22;20658;45.630;8.886;2022-08-01T02:24:07;22.70;55.80
34406;DHT22;20658;45.630;8.886;2022-08-01T02:26:49;22.60;55.70
34406;DHT22;20658;45.630;8.886;2022-08-01T02:29:27;22.60;55.90
34406;DHT22;20658;45.630;8.886;2022-08-01T02:32:19;22.60;56.10
34406;DHT22;20658;45.630;8.886;2022-08-01T02:34:57;22.60;56.30
34406;DHT22;20658;45.630;8.886;2022-08-01T02:37:36;22.50;56.30
34406;DHT22;20658;45.630;8.886;2022-08-01T02:40:12;22.50;56.60
34406;DHT22;20658;45.630;8.886;2022-08-01T02:42:50;22.40;56.40
34406;DHT22;20658;45.630;8.886;2022-08-01T02:45:25;22.40;56.60
34406;DHT22;20658;45.630;8.886;2022-08-01T02:48:07;22.30;56.90
34406;DHT22;20658;45.630;8.886;2022-08-01T02:50:46;22.30;57.00
34406;DHT22;20658;45.630;8.886;2022-08-01T02:53:22;22.30;57.00
34406;DHT22;20658;45.630;8.886;2022-08-01T02:55:57;22.30;57.20
34406;DHT22;20658;45.630;8.886;2022-08-01T02:58:33;22.20;57.50
34406;DHT22;20658;45.630;8.886;2022-08-01T03:01:10;22.10;57.60
34406;DHT22;20658;45.630;8.886;2022-08-01T03:03:45;22.10;57.60
34406;DHT22;20658;45.630;8.886;2022-08-01T03:06:19;22.10;57.80
34406;DHT22;20658;45.630;8.886;2022-08-01T03:08:53;22.10;57.50
34406;DHT22;20658;45.630;8.886;2022-08-01T03:11:28;22.10;57.60
34406;DHT22;20658;45.630;8.886;2022-08-01T03:14:05;22.10;57.50
34406;DHT22;20658;45.630;8.886;2022-08-01T03:16:43;22.00;57.60
34406;DHT22;20658;45.630;8.886;2022-08-01T03:19:20;22.00;57.80
34406;DHT22;20658;45.630;8.886;2022-08-01T03:21:57;22.00;57.70
34406;DHT22;20658;45.630;8.886;2022-08-01T03:24:31;22.00;57.30
34406;DHT22;20658;45.630;8.886;2022-08-01T03:27:07;22.00;57.30
34406;DHT22;20658;45.630;8.886;2022-08-01T03:29:41;22.00;57.20
34406;DHT22;20658;45.630;8.886;2022-08-01T03:32:17;22.00;57.30
34406;DHT22;20658;45.630;8.886;2022-08-01T03:34:52;22.00;57.30
34406;DHT22;20658;45.630;8.886;2022-08-01T03:37:28;21.90;57.40
34406;DHT22;20658;45.630;8.886;2022-08-01T03:40:07;22.00;57.40
34406;DHT22;20658;45.630;8.886;2022-08-01T03:42:47;22.00;57.40
34406;DHT22;20658;45.630;8.886;2022-08-01T03:45:25;21.90;57.30
34406;DHT22;20658;45.630;8.886;2022-08-01T03:48:02;21.90;57.60
34406;DHT22;20658;45.630;8.886;2022-08-01T03:50:43;21.80;57.50
34406;DHT22;20658;45.630;8.886;2022-08-01T03:53:22;21.80;57.70
34406;DHT22;20658;45.630;8.886;2022-08-01T03:55:58;21.80;57.80
34406;DHT22;20658;45.630;8.886;2022-08-01T03:58:33;21.80;57.80
34406;DHT22;20658;45.630;8.886;2022-08-01T04:01:08;21.80;57.90
34406;DHT22;20658;45.630;8.886;2022-08-01T04:03:42;21.70;57.80
34406;DHT22;20658;45.630;8.886;2022-08-01T04:06:17;21.70;57.80
34406;DHT22;20658;45.630;8.886;2022-08-01T04:08:51;21.70;58.00
34406;DHT22;20658;45.630;8.886;2022-08-01T04:11:33;21.70;58.20
34406;DHT22;20658;45.630;8.886;2022-08-01T04:14:06;21.70;58.20
34406;DHT22;20658;45.630;8.886;2022-08-01T04:16:40;21.60;58.20
34406;DHT22;20658;45.630;8.886;2022-08-01T04:19:13;21.60;58.20
34406;DHT22;20658;45.630;8.886;2022-08-01T04:21:48;21.60;58.20
34406;DHT22;20658;45.630;8.886;2022-08-01T04:24:23;21.60;58.50
34406;DHT22;20658;45.630;8.886;2022-08-01T04:26:59;21.60;58.90
34406;DHT22;20658;45.630;8.886;2022-08-01T04:29:34;21.60;59.00
34406;DHT22;20658;45.630;8.886;2022-08-01T04:32:10;21.60;59.20
34406;DHT22;20658;45.630;8.886;2022-08-01T04:34:45;21.60;59.20
34406;DHT22;20658;45.630;8.886;2022-08-01T04:37:20;21.60;59.10
34406;DHT22;20658;45.630;8.886;2022-08-01T04:39:58;21.50;59.20
34406;DHT22;20658;45.630;8.886;2022-08-01T04:42:33;21.60;59.30
34406;DHT22;20658;45.630;8.886;2022-08-01T04:45:08;21.60;59.20
34406;DHT22;20658;45.630;8.886;2022-08-01T04:47:42;21.60;59.30
34406;DHT22;20658;45.630;8.886;2022-08-01T04:50:16;21.60;59.00
34406;DHT22;20658;45.630;8.886;2022-08-01T04:52:52;21.60;59.00
34406;DHT22;20658;45.630;8.886;2022-08-01T04:55:21;21.70;58.90
34406;DHT22;20658;45.630;8.886;2022-08-01T04:57:54;21.80;58.60
34406;DHT22;20658;45.630;8.886;2022-08-01T05:00:28;21.80;58.50
34406;DHT22;20658;45.630;8.886;2022-08-01T05:03:01;21.90;58.40
34406;DHT22;20658;45.630;8.886;2022-08-01T05:05:35;22.00;57.90
34406;DHT22;20658;45.630;8.886;2022-08-01T05:08:11;22.10;57.70
34406;DHT22;20658;45.630;8.886;2022-08-01T05:10:44;22.10;57.70
34406;DHT22;20658;45.630;8.886;2022-08-01T05:13:18;22.10;57.70
34406;DHT22;20658;45.630;8.886;2022-08-01T05:15:51;22.10;57.60
34406;DHT22;20658;45.630;8.886;2022-08-01T05:18:25;22.10;57.60
34406;DHT22;20658;45.630;8.886;2022-08-01T05:20:59;22.10;57.50
34406;DHT22;20658;45.630;8.886;2022-08-01T05:23:35;22.10;57.60
34406;DHT22;20658;45.630;8.886;2022-08-01T05:26:08;22.10;57.60
34406;DHT22;20658;45.630;8.886;2022-08-01T05:28:42;22.20;57.30
34406;DHT22;20658;45.630;8.886;2022-08-01T05:31:16;22.40;57.00
34406;DHT22;20658;45.630;8.886;2022-08-01T05:33:49;22.80;55.90
34406;DHT22;20658;45.630;8.886;2022-08-01T05:36:22;23.20;54.60
34406;DHT22;20658;45.630;8.886;2022-08-01T05:38:57;23.50;53.70
34406;DHT22;20658;45.630;8.886;2022-08-01T05:41:31;23.70;53.10
34406;DHT22;20658;45.630;8.886;2022-08-01T05:44:05;24.00;51.90
34406;DHT22;20658;45.630;8.886;2022-08-01T05:46:39;24.20;51.50
34406;DHT22;20658;45.630;8.886;2022-08-01T05:49:12;24.40;51.00
34406;DHT22;20658;45.630;8.886;2022-08-01T05:51:46;24.70;50.00
34406;DHT22;20658;45.630;8.886;2022-08-01T05:54:21;24.90;49.70
34406;DHT22;20658;45.630;8.886;2022-08-01T05:56:54;25.00;49.00
34406;DHT22;20658;45.630;8.886;2022-08-01T05:59:31;25.30;48.40
34406;DHT22;20658;45.630;8.886;2022-08-01T06:02:04;25.40;47.80
34406;DHT22;20658;45.630;8.886;2022-08-01T06:04:38;25.60;47.50
34406;DHT22;20658;45.630;8.886;2022-08-01T06:07:12;25.90;47.00
34406;DHT22;20658;45.630;8.886;2022-08-01T06:09:47;26.20;46.80
34406;DHT22;20658;45.630;8.886;2022-08-01T06:12:20;26.50;46.10
34406;DHT22;20658;45.630;8.886;2022-08-01T06:14:54;26.80;45.20
34406;DHT22;20658;45.630;8.886;2022-08-01T06:17:27;27.00;45.20
34406;DHT22;20658;45.630;8.886;2022-08-01T06:20:32;27.20;43.90
34406;DHT22;20658;45.630;8.886;2022-08-01T06:23:06;27.50;43.80
34406;DHT22;20658;45.630;8.886;2022-08-01T06:25:41;27.80;42.50
34406;DHT22;20658;45.630;8.886;2022-08-01T06:28:14;27.80;42.50
34406;DHT22;20658;45.630;8.886;2022-08-01T06:30:48;28.00;42.70
34406;DHT22;20658;45.630;8.886;2022-08-01T06:33:21;28.20;41.20
34406;DHT22;20658;45.630;8.886;2022-08-01T06:35:55;28.30;41.80
34406;DHT22;20658;45.630;8.886;2022-08-01T06:38:28;28.50;41.00
34406;DHT22;20658;45.630;8.886;2022-08-01T06:41:03;28.70;40.90
34406;DHT22;20658;45.630;8.886;2022-08-01T06:43:36;28.90;40.40
34406;DHT22;20658;45.630;8.886;2022-08-01T06:46:10;29.10;40.60
34406;DHT22;20658;45.630;8.886;2022-08-01T06:48:43;29.50;39.40
34406;DHT22;20658;45.630;8.886;2022-08-01T06:51:17;29.60;39.00
34406;DHT22;20658;45.630;8.886;2022-08-01T06:53:52;29.70;38.60
34406;DHT22;20658;45.630;8.886;2022-08-01T06:56:27;29.80;38.70
34406;DHT22;20658;45.630;8.886;2022-08-01T06:59:00;30.10;38.20
34406;DHT22;20658;45.630;8.886;2022-08-01T07:01:34;30.20;37.80
34406;DHT22;20658;45.630;8.886;2022-08-01T07:04:08;30.20;37.10
34406;DHT22;20658;45.630;8.886;2022-08-01T07:06:41;30.40;37.30
34406;DHT22;20658;45.630;8.886;2022-08-01T07:09:15;30.50;36.90
34406;DHT22;20658;45.630;8.886;2022-08-01T07:11:49;30.50;36.40
34406;DHT22;20658;45.630;8.886;2022-08-01T07:14:24;30.60;36.60
34406;DHT22;20658;45.630;8.886;2022-08-01T07:16:57;30.70;35.90
34406;DHT22;20658;45.630;8.886;2022-08-01T07:19:31;30.80;35.60
34406;DHT22;20658;45.630;8.886;2022-08-01T07:22:05;30.90;35.40
34406;DHT22;20658;45.630;8.886;2022-08-01T07:24:38;30.90;35.00
34406;DHT22;20658;45.630;8.886;2022-08-01T07:27:13;30.80;34.90
34406;DHT22;20658;45.630;8.886;2022-08-01T07:29:46;31.10;34.90
34406;DHT22;20658;45.630;8.886;2022-08-01T07:32:20;31.40;34.50
34406;DHT22;20658;45.630;8.886;2022-08-01T07:34:53;31.40;33.60
34406;DHT22;20658;45.630;8.886;2022-08-01T07:37:27;31.40;33.10
34406;DHT22;20658;45.630;8.886;2022-08-01T07:40:00;31.40;33.30
34406;DHT22;20658;45.630;8.886;2022-08-01T07:42:37;31.50;33.40
34406;DHT22;20658;45.630;8.886;2022-08-01T07:45:11;31.70;33.50
34406;DHT22;20658;45.630;8.886;2022-08-01T07:47:45;31.80;33.10
34406;DHT22;20658;45.630;8.886;2022-08-01T07:50:19;32.00;33.70
34406;DHT22;20658;45.630;8.886;2022-08-01T07:52:52;32.10;33.70
34406;DHT22;20658;45.630;8.886;2022-08-01T07:55:26;32.20;33.40
34406;DHT22;20658;45.630;8.886;2022-08-01T07:58:01;32.10;33.30
34406;DHT22;20658;45.630;8.886;2022-08-01T08:00:34;32.30;32.90
34406;DHT22;20658;45.630;8.886;2022-08-01T08:03:08;32.50;32.70
34406;DHT22;20658;45.630;8.886;2022-08-01T08:05:41;32.50;32.80
34406;DHT22;20658;45.630;8.886;2022-08-01T08:08:15;32.50;33.00
34406;DHT22;20658;45.630;8.886;2022-08-01T08:10:50;32.60;32.50
34406;DHT22;20658;45.630;8.886;2022-08-01T08:13:24;32.30;32.70
34406;DHT22;20658;45.630;8.886;2022-08-01T08:15:58;32.30;32.60
34406;DHT22;20658;45.630;8.886;2022-08-01T08:18:31;32.30;32.10
34406;DHT22;20658;45.630;8.886;2022-08-01T08:21:05;32.40;31.90
34406;DHT22;20658;45.630;8.886;2022-08-01T08:23:38;32.70;31.60
34406;DHT22;20658;45.630;8.886;2022-08-01T08:26:29;32.80;31.70
34406;DHT22;20658;45.630;8.886;2022-08-01T08:29:04;33.00;31.70
34406;DHT22;20658;45.630;8.886;2022-08-01T08:31:38;32.90;31.40
34406;DHT22;20658;45.630;8.886;2022-08-01T08:34:12;33.00;31.70
34406;DHT22;20658;45.630;8.886;2022-08-01T08:36:45;32.80;31.30
34406;DHT22;20658;45.630;8.886;2022-08-01T08:39:19;32.40;32.10
34406;DHT22;20658;45.630;8.886;2022-08-01T08:41:52;32.60;32.40
34406;DHT22;20658;45.630;8.886;2022-08-01T08:44:27;33.00;32.60
34406;DHT22;20658;45.630;8.886;2022-08-01T08:47:02;33.40;31.60
34406;DHT22;20658;45.630;8.886;2022-08-01T08:49:38;33.50;31.30
34406;DHT22;20658;45.630;8.886;2022-08-01T08:52:12;33.60;31.20
34406;DHT22;20658;45.630;8.886;2022-08-01T08:54:47;33.60;31.50
34406;DHT22;20658;45.630;8.886;2022-08-01T08:57:21;33.60;31.20
34406;DHT22;20658;45.630;8.886;2022-08-01T08:59:56;33.60;31.20
34406;DHT22;20658;45.630;8.886;2022-08-01T09:02:30;33.70;31.90
34406;DHT22;20658;45.630;8.886;2022-08-01T09:04:58;33.70;31.70
34406;DHT22;20658;45.630;8.886;2022-08-01T09:07:32;33.90;31.30
34406;DHT22;20658;45.630;8.886;2022-08-01T09:10:07;34.00;31.70
34406;DHT22;20658;45.630;8.886;2022-08-01T09:13:05;33.70;32.00
34406;DHT22;20658;45.630;8.886;2022-08-01T09:15:44;33.70;31.10
34406;DHT22;20658;45.630;8.886;2022-08-01T09:18:26;33.90;31.00
34406;DHT22;20658;45.630;8.886;2022-08-01T09:21:10;34.00;31.10
34406;DHT22;20658;45.630;8.886;2022-08-01T09:23:48;34.00;30.70
34406;DHT22;20658;45.630;8.886;2022-08-01T09:26:31;33.90;30.90
34406;DHT22;20658;45.630;8.886;2022-08-01T09:29:16;34.00;32.10
34406;DHT22;20658;45.630;8.886;2022-08-01T09:31:52;34.30;31.60
34406;DHT22;20658;45.630;8.886;2022-08-01T09:34:28;34.40;31.90
34406;DHT22;20658;45.630;8.886;2022-08-01T09:37:03;34.50;30.80
34406;DHT22;20658;45.630;8.886;2022-08-01T09:39:38;34.00;31.50
34406;DHT22;20658;45.630;8.886;2022-08-01T09:42:22;34.10;31.60
34406;DHT22;20658;45.630;8.886;2022-08-01T09:44:56;34.10;30.90
34406;DHT22;20658;45.630;8.886;2022-08-01T09:47:38;34.00;31.10
34406;DHT22;20658;45.630;8.886;2022-08-01T09:50:12;34.00;31.40
34406;DHT22;20658;45.630;8.886;2022-08-01T09:52:53;34.20;31.20
34406;DHT22;20658;45.630;8.886;2022-08-01T09:55:28;34.00;31.20
34406;DHT22;20658;45.630;8.886;2022-08-01T09:58:01;33.80;30.80
34406;DHT22;20658;45.630;8.886;2022-08-01T10:00:36;34.10;31.60
34406;DHT22;20658;45.630;8.886;2022-08-01T10:03:22;34.40;30.40
34406;DHT22;20658;45.630;8.886;2022-08-01T10:05:56;34.60;30.10
34406;DHT22;20658;45.630;8.886;2022-08-01T10:08:45;34.60;29.80
34406;DHT22;20658;45.630;8.886;2022-08-01T10:11:19;34.90;29.50
34406;DHT22;20658;45.630;8.886;2022-08-01T10:13:54;35.20;29.70
34406;DHT22;20658;45.630;8.886;2022-08-01T10:16:28;35.20;29.50
34406;DHT22;20658;45.630;8.886;2022-08-01T10:19:06;34.90;29.50
34406;DHT22;20658;45.630;8.886;2022-08-01T10:21:41;34.70;30.20
34406;DHT22;20658;45.630;8.886;2022-08-01T10:24:16;34.90;29.80
34406;DHT22;20658;45.630;8.886;2022-08-01T10:26:55;35.10;30.20
34406;DHT22;20658;45.630;8.886;2022-08-01T10:29:41;35.10;29.90
34406;DHT22;20658;45.630;8.886;2022-08-01T10:32:20;35.30;29.90
34406;DHT22;20658;45.630;8.886;2022-08-01T10:34:56;35.60;29.20
34406;DHT22;20658;45.630;8.886;2022-08-01T10:37:30;35.00;29.80
34406;DHT22;20658;45.630;8.886;2022-08-01T10:40:04;35.20;30.30
34406;DHT22;20658;45.630;8.886;2022-08-01T10:42:39;35.50;29.90
34406;DHT22;20658;45.630;8.886;2022-08-01T10:45:15;35.60;29.40
34406;DHT22;20658;45.630;8.886;2022-08-01T10:47:55;35.60;28.70
34406;DHT22;20658;45.630;8.886;2022-08-01T10:50:37;35.80;28.70
34406;DHT22;20658;45.630;8.886;2022-08-01T10:53:25;35.90;28.70
34406;DHT22;20658;45.630;8.886;2022-08-01T10:56:06;36.00;28.90
34406;DHT22;20658;45.630;8.886;2022-08-01T10:58:43;35.80;28.80
34406;DHT22;20658;45.630;8.886;2022-08-01T11:01:20;35.90;29.10
34406;DHT22;20658;45.630;8.886;2022-08-01T11:04:10;36.20;28.90
34406;DHT22;20658;45.630;8.886;2022-08-01T11:07:02;36.10;28.90
34406;DHT22;20658;45.630;8.886;2022-08-01T11:09:42;36.20;29.00
34406;DHT22;20658;45.630;8.886;2022-08-01T11:12:17;36.40;28.70
34406;DHT22;20658;45.630;8.886;2022-08-01T11:15:16;36.50;28.40
34406;DHT22;20658;45.630;8.886;2022-08-01T11:18:02;36.60;27.90
34406;DHT22;20658;45.630;8.886;2022-08-01T11:20:36;36.60;28.00
34406;DHT22;20658;45.630;8.886;2022-08-01T11:23:21;36.70;27.90
34406;DHT22;20658;45.630;8.886;2022-08-01T11:26:14;36.70;27.60
34406;DHT22;20658;45.630;8.886;2022-08-01T11:29:12;36.80;27.30
34406;DHT22;20658;45.630;8.886;2022-08-01T11:31:47;36.80;27.80
34406;DHT22;20658;45.630;8.886;2022-08-01T11:34:53;36.90;27.10
34406;DHT22;20658;45.630;8.886;2022-08-01T11:37:28;37.00;27.20
34406;DHT22;20658;45.630;8.886;2022-08-01T11:40:20;37.20;27.10
34406;DHT22;20658;45.630;8.886;2022-08-01T11:43:17;37.40;26.90
34406;DHT22;20658;45.630;8.886;2022-08-01T11:45:52;37.10;26.30
34406;DHT22;20658;45.630;8.886;2022-08-01T11:52:06;37.10;26.30
34406;DHT22;20658;45.630;8.886;2022-08-01T11:54:42;36.80;25.80
34406;DHT22;20658;45.630;8.886;2022-08-01T11:57:20;37.00;26.90
34406;DHT22;20658;45.630;8.886;2022-08-01T11:59:56;37.40;25.90
34406;DHT22;20658;45.630;8.886;2022-08-01T12:02:40;37.40;25.80
34406;DHT22;20658;45.630;8.886;2022-08-01T12:05:15;37.50;26.00
34406;DHT22;20658;45.630;8.886;2022-08-01T12:07:53;37.50;25.70
34406;DHT22;20658;45.630;8.886;2022-08-01T12:10:29;37.10;26.10
34406;DHT22;20658;45.630;8.886;2022-08-01T12:13:09;37.40;26.10
34406;DHT22;20658;45.630;8.886;2022-08-01T12:15:40;37.60;25.50
34406;DHT22;20658;45.630;8.886;2022-08-01T12:18:14;37.60;24.50
34406;DHT22;20658;45.630;8.886;2022-08-01T12:20:47;37.50;24.80
34406;DHT22;20658;45.630;8.886;2022-08-01T12:23:21;37.50;25.80
34406;DHT22;20658;45.630;8.886;2022-08-01T12:25:54;37.40;25.50
34406;DHT22;20658;45.630;8.886;2022-08-01T12:28:29;37.70;25.00
34406;DHT22;20658;45.630;8.886;2022-08-01T12:31:02;37.80;24.60
34406;DHT22;20658;45.630;8.886;2022-08-01T12:33:36;38.10;25.00
34406;DHT22;20658;45.630;8.886;2022-08-01T12:36:09;38.00;24.50
34406;DHT22;20658;45.630;8.886;2022-08-01T12:38:43;37.80;24.00
34406;DHT22;20658;45.630;8.886;2022-08-01T12:41:17;37.80;23.80
34406;DHT22;20658;45.630;8.886;2022-08-01T12:43:52;37.50;23.80
34406;DHT22;20658;45.630;8.886;2022-08-01T12:46:26;37.60;24.50
34406;DHT22;20658;45.630;8.886;2022-08-01T12:48:59;37.90;23.80
34406;DHT22;20658;45.630;8.886;2022-08-01T12:51:33;38.10;24.00
34406;DHT22;20658;45.630;8.886;2022-08-01T12:54:06;38.50;23.60
34406;DHT22;20658;45.630;8.886;2022-08-01T12:56:41;38.10;23.90
34406;DHT22;20658;45.630;8.886;2022-08-01T12:59:24;38.20;23.50
34406;DHT22;20658;45.630;8.886;2022-08-01T13:02:08;38.30;23.30
34406;DHT22;20658;45.630;8.886;2022-08-01T13:04:49;38.50;23.20
34406;DHT22;20658;45.630;8.886;2022-08-01T13:07:23;38.20;23.20
34406;DHT22;20658;45.630;8.886;2022-08-01T13:10:08;38.40;23.40
34406;DHT22;20658;45.630;8.886;2022-08-01T13:12:51;38.40;23.80
34406;DHT22;20658;45.630;8.886;2022-08-01T13:15:26;38.30;23.30
34406;DHT22;20658;45.630;8.886;2022-08-01T13:18:23;38.20;23.00
34406;DHT22;20658;45.630;8.886;2022-08-01T13:21:08;38.10;23.00
34406;DHT22;20658;45.630;8.886;2022-08-01T13:24:02;38.60;23.00
34406;DHT22;20658;45.630;8.886;2022-08-01T13:26:43;38.70;22.50
34406;DHT22;20658;45.630;8.886;2022-08-01T13:29:19;38.70;22.90
34406;DHT22;20658;45.630;8.886;2022-08-01T13:31:56;38.60;22.60
34406;DHT22;20658;45.630;8.886;2022-08-01T13:34:30;38.50;22.70
34406;DHT22;20658;45.630;8.886;2022-08-01T13:37:04;38.70;22.60
34406;DHT22;20658;45.630;8.886;2022-08-01T13:39:38;38.80;22.30
34406;DHT22;20658;45.630;8.886;2022-08-01T13:42:16;38.90;22.20
34406;DHT22;20658;45.630;8.886;2022-08-01T13:44:49;39.00;21.70
34406;DHT22;20658;45.630;8.886;2022-08-01T13:47:27;39.00;21.90
34406;DHT22;20658;45.630;8.886;2022-08-01T13:50:01;38.90;21.10
34406;DHT22;20658;45.630;8.886;2022-08-01T13:52:35;38.90;21.60
34406;DHT22;20658;45.630;8.886;2022-08-01T13:55:09;38.90;21.60
34406;DHT22;20658;45.630;8.886;2022-08-01T13:57:42;39.00;22.10
34406;DHT22;20658;45.630;8.886;2022-08-01T14:00:16;38.90;21.70
34406;DHT22;20658;45.630;8.886;2022-08-01T14:02:51;38.90;21.40
34406;DHT22;20658;45.630;8.886;2022-08-01T14:05:24;38.80;21.40
34406;DHT22;20658;45.630;8.886;2022-08-01T14:07:58;38.30;21.70
34406;DHT22;20658;45.630;8.886;2022-08-01T14:10:32;38.60;21.40
34406;DHT22;20658;45.630;8.886;2022-08-01T14:13:05;38.30;21.50
34406;DHT22;20658;45.630;8.886;2022-08-01T14:15:38;38.30;21.30
34406;DHT22;20658;45.630;8.886;2022-08-01T14:18:13;38.50;21.40
34406;DHT22;20658;45.630;8.886;2022-08-01T14:20:47;38.60;21.10
34406;DHT22;20658;45.630;8.886;2022-08-01T14:23:20;38.50;21.20
34406;DHT22;20658;45.630;8.886;2022-08-01T14:25:54;38.60;21.50
34406;DHT22;20658;45.630;8.886;2022-08-01T14:28:27;38.70;21.30
34406;DHT22;20658;45.630;8.886;2022-08-01T14:31:02;38.90;21.10
34406;DHT22;20658;45.630;8.886;2022-08-01T14:33:38;39.30;21.50
34406;DHT22;20658;45.630;8.886;2022-08-01T14:36:12;39.20;21.30
34406;DHT22;20658;45.630;8.886;2022-08-01T14:38:45;39.20;21.30
34406;DHT22;20658;45.630;8.886;2022-08-01T14:41:19;39.20;21.60
34406;DHT22;20658;45.630;8.886;2022-08-01T14:43:52;38.70;21.70
34406;DHT22;20658;45.630;8.886;2022-08-01T14:46:25;38.60;22.20
34406;DHT22;20658;45.630;8.886;2022-08-01T14:49:00;38.80;21.70
34406;DHT22;20658;45.630;8.886;2022-08-01T14:51:34;38.90;21.30
34406;DHT22;20658;45.630;8.886;2022-08-01T14:54:09;38.90;21.40
34406;DHT22;20658;45.630;8.886;2022-08-01T14:56:43;38.90;21.10
34406;DHT22;20658;45.630;8.886;2022-08-01T14:59:16;39.00;22.10
34406;DHT22;20658;45.630;8.886;2022-08-01T15:01:50;39.30;21.70
34406;DHT22;20658;45.630;8.886;2022-08-01T15:04:25;39.30;21.20
34406;DHT22;20658;45.630;8.886;2022-08-01T15:06:58;38.90;21.00
34406;DHT22;20658;45.630;8.886;2022-08-01T15:09:31;38.70;21.10
34406;DHT22;20658;45.630;8.886;2022-08-01T15:12:06;38.90;20.90
34406;DHT22;20658;45.630;8.886;2022-08-01T15:14:40;39.40;21.10
34406;DHT22;20658;45.630;8.886;2022-08-01T15:17:24;39.70;20.40
34406;DHT22;20658;45.630;8.886;2022-08-01T15:20:04;39.60;20.20
34406;DHT22;20658;45.630;8.886;2022-08-01T15:22:39;39.40;20.30
34406;DHT22;20658;45.630;8.886;2022-08-01T15:25:12;39.50;20.50
34406;DHT22;20658;45.630;8.886;2022-08-01T15:27:46;39.50;20.30
34406;DHT22;20658;45.630;8.886;2022-08-01T15:30:19;39.60;20.00
34406;DHT22;20658;45.630;8.886;2022-08-01T15:32:53;39.70;20.20
34406;DHT22;20658;45.630;8.886;2022-08-01T15:35:28;39.70;20.00
34406;DHT22;20658;45.630;8.886;2022-08-01T15:38:01;39.70;19.90
34406;DHT22;20658;45.630;8.886;2022-08-01T15:40:35;39.80;19.80
34406;DHT22;20658;45.630;8.886;2022-08-01T15:43:08;39.80;19.80
34406;DHT22;20658;45.630;8.886;2022-08-01T15:45:41;39.90;19.60
34406;DHT22;20658;45.630;8.886;2022-08-01T15:48:16;39.80;19.60
34406;DHT22;20658;45.630;8.886;2022-08-01T15:50:51;39.80;20.00
34406;DHT22;20658;45.630;8.886;2022-08-01T15:53:24;39.70;19.50
34406;DHT22;20658;45.630;8.886;2022-08-01T15:55:57;39.90;20.00
34406;DHT22;20658;45.630;8.886;2022-08-01T15:58:31;40.00;20.30
34406;DHT22;20658;45.630;8.886;2022-08-01T16:01:04;40.10;19.90
34406;DHT22;20658;45.630;8.886;2022-08-01T16:03:38;40.10;19.80
34406;DHT22;20658;45.630;8.886;2022-08-01T16:06:13;39.90;19.40
34406;DHT22;20658;45.630;8.886;2022-08-01T16:08:46;39.70;19.80
34406;DHT22;20658;45.630;8.886;2022-08-01T16:11:20;39.80;19.20
34406;DHT22;20658;45.630;8.886;2022-08-01T16:13:56;40.00;19.90
34406;DHT22;20658;45.630;8.886;2022-08-01T16:16:30;40.10;19.70
34406;DHT22;20658;45.630;8.886;2022-08-01T16:19:03;39.90;19.10
34406;DHT22;20658;45.630;8.886;2022-08-01T16:21:38;40.00;20.00
34406;DHT22;20658;45.630;8.886;2022-08-01T16:24:12;40.10;20.00
34406;DHT22;20658;45.630;8.886;2022-08-01T16:26:45;40.30;20.00
34406;DHT22;20658;45.630;8.886;2022-08-01T16:29:19;40.40;19.80